FSIA/SEZ METAR and TAF weather

Enter ICAO airport designator
Station Type Date Time Source
FSIA METAR 2019/10/21 06:00 UTC NOAA

FSIA 210600Z 02004KT 9999 SCT020 29/25 Q1011 NOSIG


Station Type Date Time Source
FSIA Decoded METAR 2019/10/21 06:00 UTC NOAA

Seychelles Inter-National Airport, Seychelles (FSIA) 04-40S 055-31E 3M
Oct 21, 2019 - 02:00 AM EDT / 2019.10.21 0600 UTC
Wind: from the NNE (020 degrees) at 5 MPH (4 KT):0
Visibility: greater than 7 mile(s):0
Sky conditions: partly cloudy
Temperature: 84 F (29 C)
Dew Point: 77 F (25 C)
Relative Humidity: 79%
Pressure (altimeter): 29.85 in. Hg (1011 hPa)
ob: FSIA 210600Z 02004KT 9999 SCT020 29/25 Q1011 NOSIG
cycle: 6

Station Type Date Time Source
FSIA TAF 2019/10/21 06:15 UTC NOAA

TAF TAF FSIA 210500Z 2106/2206 VRB03KT 9999 SCT020 PROB40
TEMPO 2118/2202 -SHRA FEW014CB BKN018

Example: see airport list